createdAt,value
2022-11-09T00:01:02.504Z,56.67
2022-11-09T00:03:30.366Z,57.05
2022-11-09T00:06:00.830Z,57.41
2022-11-09T00:08:29.723Z,57.52
2022-11-09T00:11:03.622Z,57.66
2022-11-09T00:13:31.482Z,57.67
2022-11-09T00:15:59.840Z,58.10
2022-11-09T00:18:27.694Z,57.18
2022-11-09T00:20:55.704Z,57.17
2022-11-09T00:23:24.943Z,57.17
2022-11-09T00:25:52.775Z,57.91
2022-11-09T00:28:20.605Z,57.33
2022-11-09T00:30:48.454Z,57.48
2022-11-09T00:33:17.748Z,57.19
2022-11-09T00:35:45.881Z,56.76
2022-11-09T00:38:13.711Z,57.90
2022-11-09T00:40:42.912Z,57.52
2022-11-09T00:43:11.120Z,57.31
2022-11-09T00:45:40.517Z,57.60
2022-11-09T00:48:09.094Z,58.66
2022-11-09T00:50:37.057Z,57.26
2022-11-09T00:53:05.007Z,56.97
2022-11-09T00:55:33.033Z,57.54
2022-11-09T00:58:02.312Z,56.67
2022-11-09T01:00:30.375Z,56.58
2022-11-09T01:02:58.242Z,57.87
2022-11-09T01:05:26.721Z,57.15
2022-11-09T01:07:54.607Z,57.09
2022-11-09T01:10:24.122Z,56.54
2022-11-09T01:12:54.433Z,57.12
2022-11-09T01:15:23.727Z,57.08
2022-11-09T01:17:51.707Z,57.35
2022-11-09T01:20:19.602Z,57.56
2022-11-09T01:22:47.451Z,57.05
2022-11-09T01:25:15.411Z,57.15
2022-11-09T01:27:43.454Z,57.07
2022-11-09T01:30:12.255Z,57.89
2022-11-09T01:32:41.500Z,58.67
2022-11-09T01:35:10.136Z,57.69
2022-11-09T01:37:37.986Z,57.76
2022-11-09T01:40:06.951Z,57.65
2022-11-09T01:42:37.868Z,57.96
2022-11-09T01:45:23.527Z,57.34
2022-11-09T01:47:58.583Z,57.82
2022-11-09T01:50:32.996Z,58.29
2022-11-09T01:53:03.496Z,58.27
2022-11-09T01:55:31.924Z,58.11
2022-11-09T01:58:04.756Z,58.48
2022-11-09T02:00:37.389Z,58.81
2022-11-09T02:03:09.201Z,58.92
2022-11-09T02:05:40.639Z,58.78
2022-11-09T02:08:13.565Z,59.53
2022-11-09T02:10:46.553Z,59.51
2022-11-09T02:13:16.791Z,59.63
2022-11-09T02:15:46.024Z,59.08
2022-11-09T02:18:15.882Z,59.68
2022-11-09T02:20:49.551Z,59.40
2022-11-09T02:23:18.333Z,59.35
2022-11-09T02:25:51.306Z,59.29
2022-11-09T02:28:19.618Z,59.39
2022-11-09T02:30:51.449Z,59.79
2022-11-09T02:33:21.976Z,59.33
2022-11-09T02:35:52.165Z,59.61
2022-11-09T02:38:20.087Z,59.79
2022-11-09T02:40:52.459Z,59.07
2022-11-09T02:43:21.337Z,59.25
2022-11-09T02:45:49.564Z,59.34
2022-11-09T02:48:18.025Z,58.82
2022-11-09T02:50:46.013Z,59.53
2022-11-09T02:53:15.297Z,59.30
2022-11-09T02:55:45.847Z,59.42
2022-11-09T02:58:14.712Z,59.02
2022-11-09T03:00:42.953Z,58.98
2022-11-09T03:03:12.915Z,59.45
2022-11-09T03:05:40.760Z,59.09
2022-11-09T03:08:08.828Z,59.11
2022-11-09T03:10:38.382Z,59.16
2022-11-09T03:13:07.285Z,58.98
2022-11-09T03:15:38.028Z,58.69
2022-11-09T03:18:08.604Z,58.60
2022-11-09T03:20:36.452Z,58.80
2022-11-09T03:23:04.441Z,58.34
2022-11-09T03:25:34.834Z,58.59
2022-11-09T03:28:06.489Z,57.77
2022-11-09T03:30:35.687Z,57.80
2022-11-09T03:33:10.003Z,57.68
2022-11-09T03:35:38.709Z,57.42
2022-11-09T03:38:07.567Z,57.13
2022-11-09T03:40:36.559Z,57.25
2022-11-09T03:43:06.311Z,57.62
2022-11-09T03:45:35.452Z,57.42
2022-11-09T03:48:03.432Z,58.05
2022-11-09T03:50:33.720Z,57.60
2022-11-09T03:53:02.495Z,58.90
2022-11-09T03:55:30.822Z,58.60
2022-11-09T03:57:58.676Z,57.84
2022-11-09T04:00:28.134Z,57.54
2022-11-09T04:02:57.028Z,60.17
2022-11-09T04:05:25.211Z,59.13
2022-11-09T04:07:55.476Z,59.13
2022-11-09T04:10:24.796Z,60.60
2022-11-09T04:12:52.652Z,59.80
2022-11-09T04:15:20.824Z,60.70
2022-11-09T04:17:57.339Z,59.96
2022-11-09T04:20:25.681Z,60.89
2022-11-09T04:22:57.756Z,61.66
2022-11-09T04:25:26.026Z,62.77
2022-11-09T04:27:58.234Z,63.00
2022-11-09T04:30:28.051Z,62.33
2022-11-09T04:32:57.420Z,62.80
2022-11-09T04:35:26.409Z,62.84
2022-11-09T04:37:55.558Z,63.54
2022-11-09T04:40:24.563Z,62.82
2022-11-09T04:42:52.936Z,62.66
2022-11-09T04:45:21.162Z,62.76
2022-11-09T04:47:49.229Z,62.80
2022-11-09T04:50:18.694Z,62.06
2022-11-09T04:52:46.555Z,62.50
2022-11-09T04:55:14.425Z,62.50
2022-11-09T04:57:42.279Z,62.46
2022-11-09T05:00:11.391Z,62.31
2022-11-09T05:02:39.234Z,62.03
2022-11-09T05:05:08.280Z,64.07
2022-11-09T05:07:38.033Z,62.78
2022-11-09T05:10:06.468Z,62.43
2022-11-09T05:12:34.344Z,64.25
2022-11-09T05:15:02.167Z,63.61
2022-11-09T05:17:29.986Z,65.19
2022-11-09T05:19:57.839Z,65.71
2022-11-09T05:22:43.377Z,65.25
2022-11-09T05:25:12.712Z,65.92
2022-11-09T05:27:41.163Z,65.24
2022-11-09T05:30:10.026Z,65.75
2022-11-09T05:32:40.576Z,65.35
2022-11-09T05:35:09.199Z,64.53
2022-11-09T05:37:39.212Z,65.09
2022-11-09T05:40:09.139Z,65.44
2022-11-09T05:42:40.930Z,67.15
2022-11-09T05:45:40.053Z,65.75
2022-11-09T05:47:57.783Z,66.23
2022-11-09T05:50:25.699Z,66.09
2022-11-09T05:53:11.182Z,65.91
2022-11-09T05:55:39.418Z,65.19
2022-11-09T05:58:08.720Z,65.60
2022-11-09T06:00:36.670Z,66.60
2022-11-09T06:03:05.360Z,66.22
2022-11-09T06:05:33.694Z,66.03
2022-11-09T06:08:04.032Z,65.62
2022-11-09T06:10:32.041Z,65.52
2022-11-09T06:13:00.129Z,65.42
2022-11-09T06:15:29.366Z,64.84
2022-11-09T06:17:58.349Z,64.76
2022-11-09T06:20:27.907Z,65.31
2022-11-09T06:23:01.490Z,65.35
2022-11-09T06:25:31.783Z,64.98
2022-11-09T06:28:00.056Z,65.73
2022-11-09T06:30:29.705Z,64.89
2022-11-09T06:33:01.061Z,64.45
2022-11-09T06:35:29.236Z,64.02
2022-11-09T06:37:58.425Z,64.25
2022-11-09T06:40:26.367Z,66.12
2022-11-09T06:42:56.940Z,64.99
2022-11-09T06:45:24.805Z,65.55
2022-11-09T06:47:56.315Z,66.65
2022-11-09T06:50:24.463Z,65.20
2022-11-09T06:52:56.246Z,65.66
2022-11-09T06:55:24.134Z,65.85
2022-11-09T06:57:51.948Z,66.73
2022-11-09T07:00:20.821Z,66.44
2022-11-09T07:02:48.661Z,69.52
2022-11-09T07:05:18.076Z,69.32
2022-11-09T07:07:46.072Z,68.92
2022-11-09T07:10:14.000Z,69.46
2022-11-09T07:12:42.201Z,72.62
2022-11-09T07:15:11.944Z,73.15
2022-11-09T07:17:41.144Z,73.87
2022-11-09T07:20:10.586Z,73.47
2022-11-09T07:22:40.177Z,72.64
2022-11-09T07:25:09.140Z,74.02
2022-11-09T07:27:37.328Z,75.91
2022-11-09T07:30:06.288Z,75.63
2022-11-09T07:33:02.533Z,74.85
2022-11-09T07:35:22.720Z,74.56
2022-11-09T07:37:52.045Z,73.46
2022-11-09T07:40:20.232Z,75.74
2022-11-09T07:42:48.059Z,74.41
2022-11-09T07:45:16.536Z,77.07
2022-11-09T07:47:44.423Z,77.67
2022-11-09T07:50:12.259Z,76.81
2022-11-09T07:52:40.095Z,77.00
2022-11-09T07:55:10.294Z,75.45
2022-11-09T07:57:38.164Z,76.09
2022-11-09T08:00:06.840Z,75.91
2022-11-09T08:02:39.393Z,76.61
2022-11-09T08:05:08.077Z,78.07
2022-11-09T08:07:35.934Z,75.45
2022-11-09T08:10:03.803Z,75.29
2022-11-09T08:12:36.865Z,77.20
2022-11-09T08:15:05.919Z,74.77
2022-11-09T08:17:34.025Z,73.59
2022-11-09T08:20:01.931Z,75.34
2022-11-09T08:22:29.753Z,75.31
2022-11-09T08:24:57.572Z,76.53
2022-11-09T08:27:25.469Z,74.28
2022-11-09T08:29:54.684Z,75.23
2022-11-09T08:32:22.599Z,74.65
2022-11-09T08:34:50.483Z,75.70
2022-11-09T08:37:18.317Z,76.21
2022-11-09T08:39:46.133Z,75.97
2022-11-09T08:42:13.976Z,74.45
2022-11-09T08:44:41.829Z,75.12
2022-11-09T08:47:11.088Z,74.10
2022-11-09T08:49:39.189Z,73.95
2022-11-09T08:52:07.106Z,75.55
2022-11-09T08:54:34.927Z,74.14
2022-11-09T08:57:03.045Z,75.54
2022-11-09T08:59:31.431Z,75.90
2022-11-09T09:01:59.683Z,75.92
2022-11-09T09:04:29.864Z,76.41
2022-11-09T09:07:00.178Z,75.85
2022-11-09T09:09:28.305Z,76.85
2022-11-09T09:11:56.183Z,74.81
2022-11-09T09:14:24.449Z,73.60
2022-11-09T09:16:52.370Z,75.35
2022-11-09T09:19:20.214Z,74.46
2022-11-09T09:21:49.400Z,74.84
2022-11-09T09:24:17.321Z,75.31
2022-11-09T09:26:45.578Z,75.23
2022-11-09T09:29:13.658Z,74.27
2022-11-09T09:31:41.843Z,73.61
2022-11-09T09:34:11.160Z,73.91
2022-11-09T09:36:43.284Z,74.45
2022-11-09T09:39:16.080Z,71.22
2022-11-09T09:41:50.994Z,72.86
2022-11-09T09:44:27.094Z,70.47
2022-11-09T09:47:02.622Z,69.85
2022-11-09T09:49:32.988Z,70.13
2022-11-09T09:52:06.361Z,71.40
2022-11-09T09:54:39.198Z,71.18
2022-11-09T09:57:15.864Z,71.77
2022-11-09T09:59:45.692Z,73.61
2022-11-09T10:02:22.820Z,72.27
2022-11-09T10:04:51.583Z,73.40
2022-11-09T10:07:26.269Z,72.28
2022-11-09T10:10:21.291Z,72.34
2022-11-09T10:13:06.863Z,71.34
2022-11-09T10:15:43.814Z,72.66
2022-11-09T10:18:34.570Z,70.87
2022-11-09T10:21:16.901Z,71.90
2022-11-09T10:23:56.010Z,71.91
2022-11-09T10:26:33.515Z,71.50
2022-11-09T10:29:19.225Z,73.28
2022-11-09T10:31:48.927Z,71.71
2022-11-09T10:34:19.881Z,71.58
2022-11-09T10:36:57.299Z,72.18
2022-11-09T10:39:29.907Z,71.12
2022-11-09T10:42:17.775Z,68.78
2022-11-09T10:45:14.329Z,66.41
2022-11-09T10:48:01.672Z,66.34
2022-11-09T10:50:51.843Z,68.04
2022-11-09T10:53:38.262Z,66.84
2022-11-09T10:56:25.191Z,67.21
2022-11-09T10:59:34.358Z,65.81
2022-11-09T11:02:42.545Z,66.57
2022-11-09T11:05:31.714Z,64.48
2022-11-09T11:08:34.194Z,64.73
2022-11-09T11:11:35.623Z,63.81
2022-11-09T11:14:28.611Z,64.17
2022-11-09T11:17:28.332Z,61.98
2022-11-09T11:20:30.716Z,62.08
2022-11-09T11:23:20.168Z,63.05
2022-11-09T11:26:26.247Z,61.43
2022-11-09T11:29:25.696Z,62.47
2022-11-09T11:32:16.411Z,65.19
2022-11-09T11:35:05.415Z,63.59
2022-11-09T11:38:02.761Z,62.92
2022-11-09T11:41:03.885Z,62.43
2022-11-09T11:43:57.147Z,61.95
2022-11-09T11:46:47.437Z,61.75
2022-11-09T11:49:50.939Z,61.38
2022-11-09T11:52:58.257Z,60.71
2022-11-09T11:55:58.826Z,60.23
2022-11-09T11:58:57.617Z,61.38
2022-11-09T12:01:55.057Z,60.81
2022-11-09T12:05:00.729Z,59.73
2022-11-09T12:07:58.612Z,59.80
2022-11-09T12:10:56.033Z,60.37
2022-11-09T12:13:55.865Z,60.77
2022-11-09T12:16:47.307Z,61.46
2022-11-09T12:19:53.519Z,61.53
2022-11-09T12:22:47.469Z,61.10
2022-11-09T12:25:43.390Z,62.70
2022-11-09T12:28:55.750Z,63.38
2022-11-09T12:31:54.843Z,63.99
2022-11-09T12:34:48.063Z,62.95
2022-11-09T12:37:38.405Z,62.63
2022-11-09T12:40:26.930Z,63.90
2022-11-09T12:43:21.190Z,63.09
2022-11-09T12:46:08.675Z,63.83
2022-11-09T12:48:57.669Z,63.73
2022-11-09T12:51:44.063Z,62.79
2022-11-09T12:54:31.109Z,64.32
2022-11-09T12:57:23.513Z,64.86
2022-11-09T13:00:50.284Z,63.90
2022-11-09T13:03:39.862Z,64.16
2022-11-09T13:06:27.862Z,64.44
2022-11-09T13:09:24.746Z,63.89
2022-11-09T13:12:34.089Z,64.42
2022-11-09T13:15:27.691Z,65.53
2022-11-09T13:18:28.161Z,65.56
2022-11-09T13:21:39.953Z,64.98
2022-11-09T13:24:59.724Z,65.39
2022-11-09T13:27:47.756Z,65.56
2022-11-09T13:30:41.952Z,65.52
2022-11-09T13:33:29.090Z,64.85
2022-11-09T13:36:20.909Z,65.75
2022-11-09T13:39:30.885Z,67.13
2022-11-09T13:42:27.944Z,65.42
2022-11-09T13:45:29.864Z,66.20
2022-11-09T13:48:39.327Z,66.53
2022-11-09T13:51:42.728Z,66.31
2022-11-09T13:54:31.364Z,65.78
2022-11-09T13:57:18.083Z,65.55
2022-11-09T14:00:06.983Z,65.58
2022-11-09T14:02:55.458Z,65.67
2022-11-09T14:05:45.533Z,65.67
2022-11-09T14:08:40.390Z,65.95
2022-11-09T14:11:49.643Z,65.41
2022-11-09T14:15:00.601Z,65.07
2022-11-09T14:17:57.898Z,66.09
2022-11-09T14:20:52.859Z,66.75
2022-11-09T14:23:39.622Z,67.05
2022-11-09T14:26:26.514Z,65.98
2022-11-09T14:29:21.302Z,67.04
2022-11-09T14:32:24.361Z,66.52
2022-11-09T14:35:22.402Z,66.80
2022-11-09T14:38:19.457Z,67.59
2022-11-09T14:41:06.751Z,67.08
2022-11-09T14:43:55.918Z,68.04
2022-11-09T14:46:42.535Z,67.76
2022-11-09T14:49:30.035Z,67.40
2022-11-09T14:52:19.991Z,67.47
2022-11-09T14:55:12.579Z,67.21
2022-11-09T14:57:59.807Z,67.13
2022-11-09T15:00:46.367Z,67.82
2022-11-09T15:03:32.608Z,67.37
2022-11-09T15:06:19.261Z,68.17
2022-11-09T15:09:09.762Z,68.54
2022-11-09T15:11:57.486Z,68.57
2022-11-09T15:14:49.111Z,69.50
2022-11-09T15:17:39.921Z,69.10
2022-11-09T15:20:31.342Z,69.50
2022-11-09T15:23:36.496Z,69.64
2022-11-09T15:26:35.652Z,70.38
2022-11-09T15:29:36.333Z,70.03
2022-11-09T15:32:23.850Z,70.39
2022-11-09T15:35:17.598Z,70.72
2022-11-09T15:38:04.489Z,70.93
2022-11-09T15:40:50.934Z,71.23
2022-11-09T15:43:37.241Z,71.35
2022-11-09T15:46:27.549Z,71.37
2022-11-09T15:49:19.620Z,71.63
2022-11-09T15:52:05.983Z,71.22
2022-11-09T15:54:52.481Z,71.58
2022-11-09T15:57:38.733Z,71.91
2022-11-09T16:00:24.924Z,71.47
2022-11-09T16:03:13.190Z,72.94
2022-11-09T16:05:59.788Z,73.19
2022-11-09T16:08:48.459Z,73.44
2022-11-09T16:11:34.668Z,73.28
2022-11-09T16:14:22.160Z,73.63
2022-11-09T16:17:08.758Z,73.41
2022-11-09T16:19:56.306Z,72.67
2022-11-09T16:22:42.568Z,72.33
2022-11-09T16:25:29.105Z,73.67
2022-11-09T16:28:15.630Z,73.68
2022-11-09T16:31:02.276Z,73.35
2022-11-09T16:33:48.475Z,73.45
2022-11-09T16:36:37.780Z,73.62
2022-11-09T16:39:27.138Z,73.79
2022-11-09T16:42:15.398Z,73.49
2022-11-09T16:45:09.457Z,73.45
2022-11-09T16:47:57.765Z,73.47
2022-11-09T16:50:44.338Z,74.19
2022-11-09T16:53:32.258Z,74.18
2022-11-09T16:56:18.655Z,74.91
2022-11-09T16:59:05.009Z,74.01
2022-11-09T17:01:52.617Z,74.28
2022-11-09T17:04:39.204Z,74.81
2022-11-09T17:07:25.766Z,74.92
2022-11-09T17:10:13.855Z,74.82
2022-11-09T17:13:00.299Z,74.30
2022-11-09T17:15:49.290Z,74.18
2022-11-09T17:18:37.587Z,74.74
2022-11-09T17:21:25.246Z,74.57
2022-11-09T17:24:11.414Z,75.37
2022-11-09T17:26:59.319Z,74.33
2022-11-09T17:29:45.597Z,74.87
2022-11-09T17:32:32.197Z,74.79
2022-11-09T17:35:18.782Z,74.35
2022-11-09T17:38:04.996Z,74.55
2022-11-09T17:40:51.380Z,75.03
2022-11-09T17:43:41.140Z,75.53
2022-11-09T17:46:27.505Z,75.58
2022-11-09T17:49:13.883Z,75.53
2022-11-09T17:52:00.371Z,75.38
2022-11-09T17:54:47.001Z,75.35
2022-11-09T17:57:33.280Z,76.14
2022-11-09T18:00:23.371Z,76.26
2022-11-09T18:03:09.916Z,75.43
2022-11-09T18:05:56.153Z,75.38
2022-11-09T18:08:43.800Z,75.62
2022-11-09T18:11:30.931Z,75.69
2022-11-09T18:14:17.269Z,76.43
2022-11-09T18:17:04.939Z,76.50
2022-11-09T18:19:51.735Z,76.21
2022-11-09T18:22:38.091Z,76.58
2022-11-09T18:25:24.348Z,75.94
2022-11-09T18:28:13.513Z,75.91
2022-11-09T18:31:04.051Z,75.76
2022-11-09T18:33:53.184Z,75.68
2022-11-09T18:36:39.681Z,74.65
2022-11-09T18:39:26.569Z,74.63
2022-11-09T18:42:13.326Z,74.29
2022-11-09T18:45:00.161Z,72.54
2022-11-09T18:47:50.389Z,71.01
2022-11-09T18:50:39.737Z,71.72
2022-11-09T18:53:27.854Z,71.05
2022-11-09T18:56:19.010Z,71.22
2022-11-09T18:59:05.648Z,69.65
2022-11-09T19:01:52.433Z,68.27
2022-11-09T19:04:38.938Z,68.64
2022-11-09T19:07:26.954Z,67.85
2022-11-09T19:10:13.390Z,68.37
2022-11-09T19:12:59.569Z,67.19
2022-11-09T19:15:46.964Z,66.48
2022-11-09T19:18:33.095Z,67.83
2022-11-09T19:21:29.162Z,67.77
2022-11-09T19:24:18.878Z,67.77
2022-11-09T19:27:05.265Z,67.28
2022-11-09T19:29:51.874Z,67.39
2022-11-09T19:32:38.296Z,67.15
2022-11-09T19:35:28.420Z,68.03
2022-11-09T19:38:17.844Z,67.44
2022-11-09T19:41:06.080Z,67.38
2022-11-09T19:43:54.601Z,68.28
2022-11-09T19:46:41.938Z,67.95
2022-11-09T19:49:28.597Z,67.64
2022-11-09T19:52:14.876Z,68.26
2022-11-09T19:55:01.038Z,68.42
2022-11-09T19:57:48.690Z,68.60
2022-11-09T20:00:35.742Z,69.52
2022-11-09T20:03:22.128Z,69.66
2022-11-09T20:06:08.842Z,70.02
2022-11-09T20:08:55.725Z,70.68
2022-11-09T20:11:59.404Z,70.29
2022-11-09T20:14:47.244Z,71.09
2022-11-09T20:17:33.507Z,71.52
2022-11-09T20:20:20.000Z,70.56
2022-11-09T20:23:06.672Z,72.06
2022-11-09T20:25:53.384Z,71.66
2022-11-09T20:28:39.857Z,72.04
2022-11-09T20:31:27.408Z,72.24
2022-11-09T20:34:13.715Z,72.15
2022-11-09T20:37:00.046Z,72.31
2022-11-09T20:39:46.269Z,73.06
2022-11-09T20:42:32.964Z,72.77
2022-11-09T20:45:19.583Z,72.81
2022-11-09T20:48:19.391Z,73.72
2022-11-09T20:51:17.669Z,73.63
2022-11-09T20:54:07.463Z,74.22
2022-11-09T20:56:54.095Z,74.22
2022-11-09T20:59:40.412Z,74.70
2022-11-09T21:02:26.594Z,74.92
2022-11-09T21:05:14.270Z,75.00
2022-11-09T21:08:01.650Z,74.92
2022-11-09T21:10:48.031Z,75.01
2022-11-09T21:13:34.884Z,75.33
2022-11-09T21:16:23.376Z,75.05
2022-11-09T21:19:09.832Z,75.41
2022-11-09T21:21:57.421Z,75.62
2022-11-09T21:25:00.931Z,75.14
2022-11-09T21:28:07.036Z,75.07
2022-11-09T21:30:53.632Z,75.81
2022-11-09T21:33:40.669Z,75.23
2022-11-09T21:36:26.945Z,75.73
2022-11-09T21:39:14.535Z,74.64
2022-11-09T21:42:01.264Z,74.84
2022-11-09T21:44:47.557Z,74.75
2022-11-09T21:47:33.868Z,74.33
2022-11-09T21:50:20.203Z,74.27
2022-11-09T21:53:06.486Z,74.22
2022-11-09T21:55:54.029Z,74.16
2022-11-09T21:58:40.346Z,73.76
2022-11-09T22:01:27.103Z,73.86
2022-11-09T22:04:13.814Z,74.50
2022-11-09T22:07:00.344Z,74.53
2022-11-09T22:10:09.422Z,73.66
2022-11-09T22:13:15.673Z,73.61
2022-11-09T22:16:09.189Z,72.39
2022-11-09T22:19:13.100Z,73.10
2022-11-09T22:21:59.912Z,73.28
2022-11-09T22:24:46.624Z,71.97
2022-11-09T22:27:33.621Z,73.05
2022-11-09T22:30:21.612Z,72.45
2022-11-09T22:33:07.877Z,73.07
2022-11-09T22:35:57.979Z,72.49
2022-11-09T22:38:44.957Z,72.59
2022-11-09T22:41:31.509Z,72.04
2022-11-09T22:44:18.258Z,72.79
2022-11-09T22:47:05.998Z,72.96
2022-11-09T22:49:52.335Z,72.38
2022-11-09T22:52:38.602Z,71.52
2022-11-09T22:55:25.302Z,71.87
2022-11-09T22:58:11.957Z,71.58
2022-11-09T23:01:07.032Z,71.42
2022-11-09T23:03:55.247Z,71.90
2022-11-09T23:06:41.809Z,71.81
2022-11-09T23:09:27.895Z,70.63
2022-11-09T23:12:14.233Z,70.44
2022-11-09T23:15:06.194Z,69.91
2022-11-09T23:18:11.679Z,70.07
2022-11-09T23:21:01.393Z,69.92
2022-11-09T23:23:47.906Z,69.89
2022-11-09T23:26:35.312Z,69.38
2022-11-09T23:29:21.539Z,69.57
2022-11-09T23:32:08.459Z,69.77
2022-11-09T23:34:54.761Z,69.64
2022-11-09T23:37:42.553Z,69.12
2022-11-09T23:40:29.968Z,67.92
2022-11-09T23:43:17.319Z,67.10
2022-11-09T23:46:06.235Z,66.14
2022-11-09T23:48:52.683Z,66.29
2022-11-09T23:51:39.032Z,65.08
2022-11-09T23:54:26.690Z,65.88
2022-11-09T23:57:13.059Z,64.13
2022-11-09T23:59:59.292Z,64.69
